sensor_id;sensor_type;location;lat;lon;timestamp;P1;durP1;ratioP1;P2;durP2;ratioP2
60370;SDS011;48550;40.588;49.684;2022-11-12T00:00:34;46.03;;;27.52;;
60370;SDS011;48550;40.588;49.684;2022-11-12T00:03:01;27.63;;;15.65;;
60370;SDS011;48550;40.588;49.684;2022-11-12T00:05:27;19.75;;;12.02;;
60370;SDS011;48550;40.588;49.684;2022-11-12T00:07:53;22.75;;;13.27;;
60370;SDS011;48550;40.588;49.684;2022-11-12T00:10:19;30.73;;;17.35;;
60370;SDS011;48550;40.588;49.684;2022-11-12T00:12:44;28.75;;;16.90;;
60370;SDS011;48550;40.588;49.684;2022-11-12T00:15:10;29.20;;;18.50;;
60370;SDS011;48550;40.588;49.684;2022-11-12T00:17:37;36.33;;;21.05;;
60370;SDS011;48550;40.588;49.684;2022-11-12T00:20:03;21.83;;;11.05;;
60370;SDS011;48550;40.588;49.684;2022-11-12T00:22:29;17.77;;;11.45;;
60370;SDS011;48550;40.588;49.684;2022-11-12T00:24:55;17.90;;;10.45;;
60370;SDS011;48550;40.588;49.684;2022-11-12T00:27:21;19.45;;;12.07;;
60370;SDS011;48550;40.588;49.684;2022-11-12T00:29:46;29.17;;;16.85;;
60370;SDS011;48550;40.588;49.684;2022-11-12T00:32:12;28.95;;;16.95;;
60370;SDS011;48550;40.588;49.684;2022-11-12T00:34:38;20.38;;;12.43;;
60370;SDS011;48550;40.588;49.684;2022-11-12T00:37:04;21.58;;;12.65;;
60370;SDS011;48550;40.588;49.684;2022-11-12T00:39:29;18.13;;;10.10;;
60370;SDS011;48550;40.588;49.684;2022-11-12T00:41:55;16.33;;;10.60;;
60370;SDS011;48550;40.588;49.684;2022-11-12T00:44:21;21.85;;;12.05;;
60370;SDS011;48550;40.588;49.684;2022-11-12T00:46:47;29.35;;;18.08;;
60370;SDS011;48550;40.588;49.684;2022-11-12T00:49:13;22.00;;;11.45;;
60370;SDS011;48550;40.588;49.684;2022-11-12T00:51:39;23.13;;;12.95;;
60370;SDS011;48550;40.588;49.684;2022-11-12T00:54:05;27.70;;;16.17;;
60370;SDS011;48550;40.588;49.684;2022-11-12T00:56:31;20.90;;;11.07;;
60370;SDS011;48550;40.588;49.684;2022-11-12T00:58:57;26.98;;;15.95;;
60370;SDS011;48550;40.588;49.684;2022-11-12T01:01:23;23.30;;;14.20;;
60370;SDS011;48550;40.588;49.684;2022-11-12T01:03:49;21.55;;;12.20;;
60370;SDS011;48550;40.588;49.684;2022-11-12T01:06:19;19.20;;;12.45;;
60370;SDS011;48550;40.588;49.684;2022-11-12T01:08:46;23.92;;;14.85;;
60370;SDS011;48550;40.588;49.684;2022-11-12T01:11:14;27.92;;;15.57;;
60370;SDS011;48550;40.588;49.684;2022-11-12T01:13:44;22.77;;;13.95;;
60370;SDS011;48550;40.588;49.684;2022-11-12T01:16:16;30.45;;;16.40;;
60370;SDS011;48550;40.588;49.684;2022-11-12T01:18:44;27.85;;;17.08;;
60370;SDS011;48550;40.588;49.684;2022-11-12T01:21:11;22.40;;;14.10;;
60370;SDS011;48550;40.588;49.684;2022-11-12T01:23:38;34.92;;;16.85;;
60370;SDS011;48550;40.588;49.684;2022-11-12T01:26:05;28.38;;;15.52;;
60370;SDS011;48550;40.588;49.684;2022-11-12T01:28:33;23.23;;;13.95;;
60370;SDS011;48550;40.588;49.684;2022-11-12T01:34:05;27.58;;;14.95;;
60370;SDS011;48550;40.588;49.684;2022-11-12T01:36:34;18.80;;;11.80;;
60370;SDS011;48550;40.588;49.684;2022-11-12T01:39:04;21.60;;;12.00;;
60370;SDS011;48550;40.588;49.684;2022-11-12T01:41:32;23.50;;;14.88;;
60370;SDS011;48550;40.588;49.684;2022-11-12T01:44:09;21.05;;;12.23;;
60370;SDS011;48550;40.588;49.684;2022-11-12T01:47:22;24.48;;;11.75;;
60370;SDS011;48550;40.588;49.684;2022-11-12T01:55:02;22.75;;;12.43;;
60370;SDS011;48550;40.588;49.684;2022-11-12T01:57:53;16.08;;;10.32;;
60370;SDS011;48550;40.588;49.684;2022-11-12T02:00:19;21.30;;;12.32;;
60370;SDS011;48550;40.588;49.684;2022-11-12T02:02:45;17.50;;;11.85;;
60370;SDS011;48550;40.588;49.684;2022-11-12T02:05:16;17.05;;;10.43;;
60370;SDS011;48550;40.588;49.684;2022-11-12T02:07:44;16.65;;;10.30;;
60370;SDS011;48550;40.588;49.684;2022-11-12T02:10:11;21.10;;;11.88;;
60370;SDS011;48550;40.588;49.684;2022-11-12T02:12:38;18.50;;;10.40;;
60370;SDS011;48550;40.588;49.684;2022-11-12T02:15:24;23.80;;;11.50;;
60370;SDS011;48550;40.588;49.684;2022-11-12T02:17:50;16.67;;;10.10;;
60370;SDS011;48550;40.588;49.684;2022-11-12T02:20:16;20.15;;;13.75;;
60370;SDS011;48550;40.588;49.684;2022-11-12T02:22:43;19.58;;;11.85;;
60370;SDS011;48550;40.588;49.684;2022-11-12T02:25:12;21.83;;;12.73;;
60370;SDS011;48550;40.588;49.684;2022-11-12T02:27:42;19.88;;;13.05;;
60370;SDS011;48550;40.588;49.684;2022-11-12T02:30:08;21.27;;;13.23;;
60370;SDS011;48550;40.588;49.684;2022-11-12T02:32:34;25.50;;;14.50;;
60370;SDS011;48550;40.588;49.684;2022-11-12T02:35:00;20.92;;;13.30;;
60370;SDS011;48550;40.588;49.684;2022-11-12T02:37:26;27.55;;;14.73;;
60370;SDS011;48550;40.588;49.684;2022-11-12T02:39:51;24.92;;;13.85;;
60370;SDS011;48550;40.588;49.684;2022-11-12T02:42:17;24.33;;;14.32;;
60370;SDS011;48550;40.588;49.684;2022-11-12T02:44:43;22.15;;;13.80;;
60370;SDS011;48550;40.588;49.684;2022-11-12T02:47:09;25.58;;;14.65;;
60370;SDS011;48550;40.588;49.684;2022-11-12T02:49:34;27.48;;;14.32;;
60370;SDS011;48550;40.588;49.684;2022-11-12T02:52:00;25.73;;;14.40;;
60370;SDS011;48550;40.588;49.684;2022-11-12T02:54:26;24.35;;;13.35;;
60370;SDS011;48550;40.588;49.684;2022-11-12T02:56:51;27.25;;;15.23;;
60370;SDS011;48550;40.588;49.684;2022-11-12T02:59:17;20.77;;;14.30;;
60370;SDS011;48550;40.588;49.684;2022-11-12T03:01:43;30.08;;;22.95;;
60370;SDS011;48550;40.588;49.684;2022-11-12T03:04:08;24.88;;;13.50;;
60370;SDS011;48550;40.588;49.684;2022-11-12T03:06:34;25.50;;;14.73;;
60370;SDS011;48550;40.588;49.684;2022-11-12T03:09:00;20.48;;;13.55;;
60370;SDS011;48550;40.588;49.684;2022-11-12T03:11:25;24.55;;;14.05;;
60370;SDS011;48550;40.588;49.684;2022-11-12T03:13:51;28.02;;;15.18;;
60370;SDS011;48550;40.588;49.684;2022-11-12T03:16:17;23.25;;;14.27;;
60370;SDS011;48550;40.588;49.684;2022-11-12T03:18:43;23.02;;;15.02;;
60370;SDS011;48550;40.588;49.684;2022-11-12T03:21:08;17.70;;;12.52;;
60370;SDS011;48550;40.588;49.684;2022-11-12T03:23:34;18.02;;;10.48;;
60370;SDS011;48550;40.588;49.684;2022-11-12T03:26:03;17.33;;;11.02;;
60370;SDS011;48550;40.588;49.684;2022-11-12T03:28:29;21.42;;;12.38;;
60370;SDS011;48550;40.588;49.684;2022-11-12T03:30:56;21.90;;;13.18;;
60370;SDS011;48550;40.588;49.684;2022-11-12T03:33:23;25.23;;;14.02;;
60370;SDS011;48550;40.588;49.684;2022-11-12T03:35:49;25.95;;;12.55;;
60370;SDS011;48550;40.588;49.684;2022-11-12T03:38:15;22.00;;;11.80;;
60370;SDS011;48550;40.588;49.684;2022-11-12T03:40:40;21.67;;;11.45;;
60370;SDS011;48550;40.588;49.684;2022-11-12T03:43:06;16.35;;;11.10;;
60370;SDS011;48550;40.588;49.684;2022-11-12T03:45:33;21.73;;;12.73;;
60370;SDS011;48550;40.588;49.684;2022-11-12T03:47:58;23.40;;;12.52;;
60370;SDS011;48550;40.588;49.684;2022-11-12T03:50:25;23.20;;;12.00;;
60370;SDS011;48550;40.588;49.684;2022-11-12T03:52:53;20.48;;;13.13;;
60370;SDS011;48550;40.588;49.684;2022-11-12T03:55:22;24.20;;;13.63;;
60370;SDS011;48550;40.588;49.684;2022-11-12T03:57:49;22.25;;;12.50;;
60370;SDS011;48550;40.588;49.684;2022-11-12T04:00:16;24.05;;;12.55;;
60370;SDS011;48550;40.588;49.684;2022-11-12T04:02:43;20.38;;;12.13;;
60370;SDS011;48550;40.588;49.684;2022-11-12T04:05:09;20.08;;;12.77;;
60370;SDS011;48550;40.588;49.684;2022-11-12T04:08:00;23.63;;;13.55;;
60370;SDS011;48550;40.588;49.684;2022-11-12T04:10:47;19.52;;;12.50;;
60370;SDS011;48550;40.588;49.684;2022-11-12T04:13:13;20.98;;;13.38;;
60370;SDS011;48550;40.588;49.684;2022-11-12T04:19:05;19.33;;;11.55;;
60370;SDS011;48550;40.588;49.684;2022-11-12T04:22:26;20.95;;;12.82;;
60370;SDS011;48550;40.588;49.684;2022-11-12T04:24:45;19.13;;;11.40;;
60370;SDS011;48550;40.588;49.684;2022-11-12T04:27:32;22.45;;;12.80;;
60370;SDS011;48550;40.588;49.684;2022-11-12T04:29:59;17.67;;;11.85;;
60370;SDS011;48550;40.588;49.684;2022-11-12T04:32:50;18.52;;;11.80;;
60370;SDS011;48550;40.588;49.684;2022-11-12T04:35:24;20.40;;;12.88;;
60370;SDS011;48550;40.588;49.684;2022-11-12T04:37:50;22.50;;;13.27;;
60370;SDS011;48550;40.588;49.684;2022-11-12T04:43:05;18.25;;;11.68;;
60370;SDS011;48550;40.588;49.684;2022-11-12T04:45:52;24.27;;;11.52;;
60370;SDS011;48550;40.588;49.684;2022-11-12T04:48:19;24.80;;;13.15;;
60370;SDS011;48550;40.588;49.684;2022-11-12T04:50:49;20.98;;;12.68;;
60370;SDS011;48550;40.588;49.684;2022-11-12T04:53:18;18.83;;;12.48;;
60370;SDS011;48550;40.588;49.684;2022-11-12T04:55:43;23.90;;;13.18;;
60370;SDS011;48550;40.588;49.684;2022-11-12T04:58:09;23.95;;;14.38;;
60370;SDS011;48550;40.588;49.684;2022-11-12T05:00:35;23.38;;;13.50;;
60370;SDS011;48550;40.588;49.684;2022-11-12T05:03:01;22.05;;;11.18;;
60370;SDS011;48550;40.588;49.684;2022-11-12T05:05:27;20.05;;;12.68;;
60370;SDS011;48550;40.588;49.684;2022-11-12T05:07:52;17.17;;;11.23;;
60370;SDS011;48550;40.588;49.684;2022-11-12T05:10:18;17.33;;;11.95;;
60370;SDS011;48550;40.588;49.684;2022-11-12T05:12:44;21.63;;;12.93;;
60370;SDS011;48550;40.588;49.684;2022-11-12T05:15:10;15.05;;;9.98;;
60370;SDS011;48550;40.588;49.684;2022-11-12T05:17:42;21.40;;;11.50;;
60370;SDS011;48550;40.588;49.684;2022-11-12T05:20:09;21.65;;;12.57;;
60370;SDS011;48550;40.588;49.684;2022-11-12T05:22:35;18.92;;;11.27;;
60370;SDS011;48550;40.588;49.684;2022-11-12T05:25:01;19.85;;;10.80;;
60370;SDS011;48550;40.588;49.684;2022-11-12T05:27:27;15.02;;;10.60;;
60370;SDS011;48550;40.588;49.684;2022-11-12T05:29:53;18.08;;;9.70;;
60370;SDS011;48550;40.588;49.684;2022-11-12T05:32:19;15.73;;;10.18;;
60370;SDS011;48550;40.588;49.684;2022-11-12T05:34:44;17.25;;;10.45;;
60370;SDS011;48550;40.588;49.684;2022-11-12T05:37:11;15.35;;;9.13;;
60370;SDS011;48550;40.588;49.684;2022-11-12T05:39:37;18.25;;;10.10;;
60370;SDS011;48550;40.588;49.684;2022-11-12T05:42:03;14.43;;;9.05;;
60370;SDS011;48550;40.588;49.684;2022-11-12T05:44:29;13.98;;;8.70;;
60370;SDS011;48550;40.588;49.684;2022-11-12T05:46:55;14.35;;;9.02;;
60370;SDS011;48550;40.588;49.684;2022-11-12T05:49:21;15.13;;;8.88;;
60370;SDS011;48550;40.588;49.684;2022-11-12T05:51:47;12.43;;;8.30;;
60370;SDS011;48550;40.588;49.684;2022-11-12T05:54:13;23.33;;;12.60;;
60370;SDS011;48550;40.588;49.684;2022-11-12T05:56:38;13.73;;;9.30;;
60370;SDS011;48550;40.588;49.684;2022-11-12T05:59:05;16.15;;;10.15;;
60370;SDS011;48550;40.588;49.684;2022-11-12T06:01:33;16.27;;;9.60;;
60370;SDS011;48550;40.588;49.684;2022-11-12T06:04:02;15.95;;;8.88;;
60370;SDS011;48550;40.588;49.684;2022-11-12T06:06:28;16.83;;;10.52;;
60370;SDS011;48550;40.588;49.684;2022-11-12T06:08:54;21.50;;;11.95;;
60370;SDS011;48550;40.588;49.684;2022-11-12T06:11:20;20.20;;;9.10;;
60370;SDS011;48550;40.588;49.684;2022-11-12T06:13:46;13.20;;;8.57;;
60370;SDS011;48550;40.588;49.684;2022-11-12T06:16:11;20.77;;;10.20;;
60370;SDS011;48550;40.588;49.684;2022-11-12T06:18:37;14.77;;;8.38;;
60370;SDS011;48550;40.588;49.684;2022-11-12T06:21:07;13.98;;;8.82;;
60370;SDS011;48550;40.588;49.684;2022-11-12T06:23:51;14.73;;;7.55;;
60370;SDS011;48550;40.588;49.684;2022-11-12T06:26:19;15.25;;;7.82;;
60370;SDS011;48550;40.588;49.684;2022-11-12T06:28:46;15.50;;;10.90;;
60370;SDS011;48550;40.588;49.684;2022-11-12T06:31:13;21.45;;;9.43;;
60370;SDS011;48550;40.588;49.684;2022-11-12T06:33:39;12.32;;;8.30;;
60370;SDS011;48550;40.588;49.684;2022-11-12T06:36:06;17.25;;;9.80;;
60370;SDS011;48550;40.588;49.684;2022-11-12T06:38:33;18.77;;;12.10;;
60370;SDS011;48550;40.588;49.684;2022-11-12T06:41:00;12.05;;;7.82;;
60370;SDS011;48550;40.588;49.684;2022-11-12T06:43:26;11.68;;;6.60;;
60370;SDS011;48550;40.588;49.684;2022-11-12T06:45:57;8.27;;;6.07;;
60370;SDS011;48550;40.588;49.684;2022-11-12T06:48:23;9.70;;;6.10;;
60370;SDS011;48550;40.588;49.684;2022-11-12T06:50:49;17.33;;;6.40;;
60370;SDS011;48550;40.588;49.684;2022-11-12T06:53:15;13.77;;;6.65;;
60370;SDS011;48550;40.588;49.684;2022-11-12T06:55:40;11.07;;;6.13;;
60370;SDS011;48550;40.588;49.684;2022-11-12T06:58:06;16.88;;;6.55;;
60370;SDS011;48550;40.588;49.684;2022-11-12T07:00:32;9.73;;;6.15;;
60370;SDS011;48550;40.588;49.684;2022-11-12T07:02:58;7.78;;;5.13;;
60370;SDS011;48550;40.588;49.684;2022-11-12T07:05:23;9.75;;;5.22;;
60370;SDS011;48550;40.588;49.684;2022-11-12T07:07:49;10.38;;;5.22;;
60370;SDS011;48550;40.588;49.684;2022-11-12T07:10:15;6.50;;;4.85;;
60370;SDS011;48550;40.588;49.684;2022-11-12T07:12:40;12.35;;;5.20;;
60370;SDS011;48550;40.588;49.684;2022-11-12T07:15:06;9.40;;;4.68;;
60370;SDS011;48550;40.588;49.684;2022-11-12T07:17:32;8.20;;;5.10;;
60370;SDS011;48550;40.588;49.684;2022-11-12T07:19:57;8.52;;;4.90;;
60370;SDS011;48550;40.588;49.684;2022-11-12T07:22:25;12.52;;;7.50;;
60370;SDS011;48550;40.588;49.684;2022-11-12T07:24:50;11.82;;;6.57;;
60370;SDS011;48550;40.588;49.684;2022-11-12T07:27:16;9.07;;;4.70;;
60370;SDS011;48550;40.588;49.684;2022-11-12T07:29:42;9.82;;;5.20;;
60370;SDS011;48550;40.588;49.684;2022-11-12T07:32:07;12.27;;;5.18;;
60370;SDS011;48550;40.588;49.684;2022-11-12T07:34:33;8.77;;;5.30;;
60370;SDS011;48550;40.588;49.684;2022-11-12T07:36:59;8.65;;;4.82;;
60370;SDS011;48550;40.588;49.684;2022-11-12T07:39:24;9.93;;;4.90;;
60370;SDS011;48550;40.588;49.684;2022-11-12T07:41:50;13.63;;;5.55;;
60370;SDS011;48550;40.588;49.684;2022-11-12T07:44:16;11.70;;;5.03;;
60370;SDS011;48550;40.588;49.684;2022-11-12T07:46:41;8.57;;;5.35;;
60370;SDS011;48550;40.588;49.684;2022-11-12T07:49:07;12.48;;;4.78;;
60370;SDS011;48550;40.588;49.684;2022-11-12T07:51:33;12.32;;;4.90;;
60370;SDS011;48550;40.588;49.684;2022-11-12T07:53:59;13.73;;;4.97;;
60370;SDS011;48550;40.588;49.684;2022-11-12T07:56:25;8.50;;;4.78;;
60370;SDS011;48550;40.588;49.684;2022-11-12T07:58:51;9.98;;;6.13;;
60370;SDS011;48550;40.588;49.684;2022-11-12T08:04:00;10.68;;;4.80;;
60370;SDS011;48550;40.588;49.684;2022-11-12T08:06:28;16.25;;;5.75;;
60370;SDS011;48550;40.588;49.684;2022-11-12T08:08:55;12.82;;;5.45;;
60370;SDS011;48550;40.588;49.684;2022-11-12T08:11:22;9.43;;;5.10;;
60370;SDS011;48550;40.588;49.684;2022-11-12T08:13:49;18.10;;;7.13;;
60370;SDS011;48550;40.588;49.684;2022-11-12T08:16:16;9.90;;;5.90;;
60370;SDS011;48550;40.588;49.684;2022-11-12T08:18:42;10.38;;;5.20;;
60370;SDS011;48550;40.588;49.684;2022-11-12T08:21:09;14.95;;;5.20;;
60370;SDS011;48550;40.588;49.684;2022-11-12T08:23:37;9.32;;;4.28;;
60370;SDS011;48550;40.588;49.684;2022-11-12T08:26:04;17.80;;;7.97;;
60370;SDS011;48550;40.588;49.684;2022-11-12T08:28:32;21.52;;;13.45;;
60370;SDS011;48550;40.588;49.684;2022-11-12T08:31:06;9.75;;;5.65;;
60370;SDS011;48550;40.588;49.684;2022-11-12T08:33:34;9.25;;;4.30;;
60370;SDS011;48550;40.588;49.684;2022-11-12T08:36:03;13.88;;;7.07;;
60370;SDS011;48550;40.588;49.684;2022-11-12T08:38:30;14.50;;;5.50;;
60370;SDS011;48550;40.588;49.684;2022-11-12T08:41:03;19.55;;;6.10;;
60370;SDS011;48550;40.588;49.684;2022-11-12T08:43:30;10.63;;;4.57;;
60370;SDS011;48550;40.588;49.684;2022-11-12T08:45:57;20.77;;;6.38;;
60370;SDS011;48550;40.588;49.684;2022-11-12T08:48:24;17.67;;;6.30;;
60370;SDS011;48550;40.588;49.684;2022-11-12T08:50:50;9.95;;;4.93;;
60370;SDS011;48550;40.588;49.684;2022-11-12T08:53:16;9.85;;;4.20;;
60370;SDS011;48550;40.588;49.684;2022-11-12T08:55:42;9.32;;;4.85;;
60370;SDS011;48550;40.588;49.684;2022-11-12T08:58:08;12.77;;;5.63;;
60370;SDS011;48550;40.588;49.684;2022-11-12T09:00:40;8.45;;;4.68;;
60370;SDS011;48550;40.588;49.684;2022-11-12T09:03:12;8.50;;;4.20;;
60370;SDS011;48550;40.588;49.684;2022-11-12T09:05:39;6.88;;;4.55;;
60370;SDS011;48550;40.588;49.684;2022-11-12T09:08:08;11.10;;;4.88;;
60370;SDS011;48550;40.588;49.684;2022-11-12T09:10:36;6.78;;;3.90;;
60370;SDS011;48550;40.588;49.684;2022-11-12T09:13:03;11.60;;;5.05;;
60370;SDS011;48550;40.588;49.684;2022-11-12T09:15:28;8.50;;;4.70;;
60370;SDS011;48550;40.588;49.684;2022-11-12T09:17:55;8.40;;;4.63;;
60370;SDS011;48550;40.588;49.684;2022-11-12T09:20:22;8.77;;;3.90;;
60370;SDS011;48550;40.588;49.684;2022-11-12T09:22:49;10.77;;;4.70;;
60370;SDS011;48550;40.588;49.684;2022-11-12T09:25:15;6.25;;;4.00;;
60370;SDS011;48550;40.588;49.684;2022-11-12T09:27:41;9.10;;;4.13;;
60370;SDS011;48550;40.588;49.684;2022-11-12T09:30:07;12.38;;;4.47;;
60370;SDS011;48550;40.588;49.684;2022-11-12T09:32:33;9.80;;;4.15;;
60370;SDS011;48550;40.588;49.684;2022-11-12T09:34:59;8.38;;;4.30;;
60370;SDS011;48550;40.588;49.684;2022-11-12T09:37:24;6.80;;;4.55;;
60370;SDS011;48550;40.588;49.684;2022-11-12T09:39:50;8.07;;;4.68;;
60370;SDS011;48550;40.588;49.684;2022-11-12T09:42:16;6.72;;;4.50;;
60370;SDS011;48550;40.588;49.684;2022-11-12T09:44:47;11.32;;;4.65;;
60370;SDS011;48550;40.588;49.684;2022-11-12T09:47:36;10.27;;;4.50;;
60370;SDS011;48550;40.588;49.684;2022-11-12T09:52:51;8.23;;;4.20;;
60370;SDS011;48550;40.588;49.684;2022-11-12T09:57:56;6.80;;;3.83;;
60370;SDS011;48550;40.588;49.684;2022-11-12T10:00:21;9.95;;;4.13;;
60370;SDS011;48550;40.588;49.684;2022-11-12T10:03:02;9.30;;;4.13;;
60370;SDS011;48550;40.588;49.684;2022-11-12T10:05:40;14.70;;;4.43;;
60370;SDS011;48550;40.588;49.684;2022-11-12T10:11:14;11.35;;;6.32;;
60370;SDS011;48550;40.588;49.684;2022-11-12T10:19:39;6.25;;;3.78;;
60370;SDS011;48550;40.588;49.684;2022-11-12T10:22:20;8.43;;;4.20;;
60370;SDS011;48550;40.588;49.684;2022-11-12T10:24:55;7.15;;;4.00;;
60370;SDS011;48550;40.588;49.684;2022-11-12T10:27:27;12.20;;;4.15;;
60370;SDS011;48550;40.588;49.684;2022-11-12T10:30:01;8.85;;;4.10;;
60370;SDS011;48550;40.588;49.684;2022-11-12T10:32:31;5.97;;;3.70;;
60370;SDS011;48550;40.588;49.684;2022-11-12T10:35:01;11.07;;;4.55;;
60370;SDS011;48550;40.588;49.684;2022-11-12T10:42:58;6.75;;;4.60;;
60370;SDS011;48550;40.588;49.684;2022-11-12T10:45:25;9.05;;;3.90;;
60370;SDS011;48550;40.588;49.684;2022-11-12T10:47:51;7.88;;;4.38;;
60370;SDS011;48550;40.588;49.684;2022-11-12T10:50:18;10.07;;;4.10;;
60370;SDS011;48550;40.588;49.684;2022-11-12T10:53:05;8.45;;;4.40;;
60370;SDS011;48550;40.588;49.684;2022-11-12T10:55:35;9.00;;;4.32;;
60370;SDS011;48550;40.588;49.684;2022-11-12T11:00:33;5.65;;;3.80;;
60370;SDS011;48550;40.588;49.684;2022-11-12T11:03:01;6.53;;;4.43;;
60370;SDS011;48550;40.588;49.684;2022-11-12T11:07:58;8.23;;;4.40;;
60370;SDS011;48550;40.588;49.684;2022-11-12T11:10:27;8.23;;;3.92;;
60370;SDS011;48550;40.588;49.684;2022-11-12T11:15:59;15.32;;;4.90;;
60370;SDS011;48550;40.588;49.684;2022-11-12T11:18:31;10.50;;;4.50;;
60370;SDS011;48550;40.588;49.684;2022-11-12T11:42:59;9.98;;;4.32;;
60370;SDS011;48550;40.588;49.684;2022-11-12T11:48:24;8.70;;;4.05;;
60370;SDS011;48550;40.588;49.684;2022-11-12T11:53:45;8.60;;;4.13;;
60370;SDS011;48550;40.588;49.684;2022-11-12T11:56:32;9.40;;;5.15;;
60370;SDS011;48550;40.588;49.684;2022-11-12T12:21:36;14.02;;;4.00;;
60370;SDS011;48550;40.588;49.684;2022-11-12T12:24:14;6.38;;;4.38;;
60370;SDS011;48550;40.588;49.684;2022-11-12T12:26:52;7.38;;;4.78;;
60370;SDS011;48550;40.588;49.684;2022-11-12T12:29:29;10.10;;;4.50;;
60370;SDS011;48550;40.588;49.684;2022-11-12T12:34:30;9.27;;;4.72;;
60370;SDS011;48550;40.588;49.684;2022-11-12T12:37:04;8.18;;;3.95;;
60370;SDS011;48550;40.588;49.684;2022-11-12T12:45:32;8.98;;;4.60;;
60370;SDS011;48550;40.588;49.684;2022-11-12T12:48:07;9.45;;;4.00;;
60370;SDS011;48550;40.588;49.684;2022-11-12T12:50:56;8.80;;;3.97;;
60370;SDS011;48550;40.588;49.684;2022-11-12T12:55:57;8.02;;;5.05;;
60370;SDS011;48550;40.588;49.684;2022-11-12T13:03:47;9.93;;;4.40;;
60370;SDS011;48550;40.588;49.684;2022-11-12T13:08:52;9.07;;;4.40;;
60370;SDS011;48550;40.588;49.684;2022-11-12T13:14:44;9.05;;;4.50;;
60370;SDS011;48550;40.588;49.684;2022-11-12T13:17:10;8.32;;;5.05;;
60370;SDS011;48550;40.588;49.684;2022-11-12T13:30:54;10.18;;;5.03;;
60370;SDS011;48550;40.588;49.684;2022-11-12T13:32:53;10.02;;;4.75;;
60370;SDS011;48550;40.588;49.684;2022-11-12T13:35:24;10.25;;;5.05;;
60370;SDS011;48550;40.588;49.684;2022-11-12T13:43:21;10.55;;;4.88;;
60370;SDS011;48550;40.588;49.684;2022-11-12T13:51:13;10.80;;;4.80;;
60370;SDS011;48550;40.588;49.684;2022-11-12T13:53:39;11.40;;;4.82;;
60370;SDS011;48550;40.588;49.684;2022-11-12T13:56:07;11.68;;;5.03;;
60370;SDS011;48550;40.588;49.684;2022-11-12T13:58:35;10.73;;;5.22;;
60370;SDS011;48550;40.588;49.684;2022-11-12T14:01:04;15.30;;;6.72;;
60370;SDS011;48550;40.588;49.684;2022-11-12T14:03:47;13.18;;;5.43;;
60370;SDS011;48550;40.588;49.684;2022-11-12T14:06:23;14.60;;;6.38;;
60370;SDS011;48550;40.588;49.684;2022-11-12T14:22:55;19.77;;;7.70;;
60370;SDS011;48550;40.588;49.684;2022-11-12T14:25:27;18.95;;;8.95;;
60370;SDS011;48550;40.588;49.684;2022-11-12T14:27:54;15.02;;;7.90;;
60370;SDS011;48550;40.588;49.684;2022-11-12T14:32:49;17.48;;;7.53;;
60370;SDS011;48550;40.588;49.684;2022-11-12T14:35:17;16.77;;;8.90;;
60370;SDS011;48550;40.588;49.684;2022-11-12T14:37:46;18.17;;;7.60;;
60370;SDS011;48550;40.588;49.684;2022-11-12T14:40:16;15.32;;;8.02;;
60370;SDS011;48550;40.588;49.684;2022-11-12T14:42:43;16.20;;;7.95;;
60370;SDS011;48550;40.588;49.684;2022-11-12T14:45:16;17.48;;;8.00;;
60370;SDS011;48550;40.588;49.684;2022-11-12T14:47:44;16.00;;;8.32;;
60370;SDS011;48550;40.588;49.684;2022-11-12T14:50:13;17.52;;;9.07;;
60370;SDS011;48550;40.588;49.684;2022-11-12T14:53:12;15.95;;;8.23;;
60370;SDS011;48550;40.588;49.684;2022-11-12T14:55:39;14.10;;;7.97;;
60370;SDS011;48550;40.588;49.684;2022-11-12T14:58:14;14.85;;;7.97;;
60370;SDS011;48550;40.588;49.684;2022-11-12T15:00:42;17.90;;;8.48;;
60370;SDS011;48550;40.588;49.684;2022-11-12T15:03:14;17.02;;;7.60;;
60370;SDS011;48550;40.588;49.684;2022-11-12T15:05:53;13.15;;;7.07;;
60370;SDS011;48550;40.588;49.684;2022-11-12T15:08:29;15.40;;;8.23;;
60370;SDS011;48550;40.588;49.684;2022-11-12T15:22:05;18.48;;;8.32;;
60370;SDS011;48550;40.588;49.684;2022-11-12T15:24:31;23.90;;;12.65;;
60370;SDS011;48550;40.588;49.684;2022-11-12T15:27:01;15.43;;;8.82;;
60370;SDS011;48550;40.588;49.684;2022-11-12T15:29:47;20.13;;;9.73;;
60370;SDS011;48550;40.588;49.684;2022-11-12T15:37:04;17.58;;;7.97;;
60370;SDS011;48550;40.588;49.684;2022-11-12T15:39:44;15.20;;;8.77;;
60370;SDS011;48550;40.588;49.684;2022-11-12T15:45:35;17.45;;;8.48;;
60370;SDS011;48550;40.588;49.684;2022-11-12T15:47:54;20.23;;;8.85;;
60370;SDS011;48550;40.588;49.684;2022-11-12T15:50:23;15.52;;;8.23;;
60370;SDS011;48550;40.588;49.684;2022-11-12T15:52:49;25.10;;;12.00;;
60370;SDS011;48550;40.588;49.684;2022-11-12T15:55:15;29.63;;;13.63;;
60370;SDS011;48550;40.588;49.684;2022-11-12T15:57:49;32.17;;;13.27;;
60370;SDS011;48550;40.588;49.684;2022-11-12T16:00:23;34.83;;;15.32;;
60370;SDS011;48550;40.588;49.684;2022-11-12T16:03:12;37.42;;;15.57;;
60370;SDS011;48550;40.588;49.684;2022-11-12T16:08:09;35.85;;;17.10;;
60370;SDS011;48550;40.588;49.684;2022-11-12T16:10:35;42.63;;;19.45;;
60370;SDS011;48550;40.588;49.684;2022-11-12T16:13:03;41.70;;;19.42;;
60370;SDS011;48550;40.588;49.684;2022-11-12T16:15:30;31.63;;;17.73;;
60370;SDS011;48550;40.588;49.684;2022-11-12T16:17:56;43.95;;;18.65;;
60370;SDS011;48550;40.588;49.684;2022-11-12T16:20:28;40.53;;;18.40;;
60370;SDS011;48550;40.588;49.684;2022-11-12T16:22:58;40.10;;;19.40;;
60370;SDS011;48550;40.588;49.684;2022-11-12T16:25:29;40.58;;;19.13;;
60370;SDS011;48550;40.588;49.684;2022-11-12T16:27:58;39.20;;;18.58;;
60370;SDS011;48550;40.588;49.684;2022-11-12T16:30:26;48.17;;;20.17;;
60370;SDS011;48550;40.588;49.684;2022-11-12T16:32:57;48.00;;;19.73;;
60370;SDS011;48550;40.588;49.684;2022-11-12T16:35:24;45.65;;;20.92;;
60370;SDS011;48550;40.588;49.684;2022-11-12T16:37:52;60.08;;;20.98;;
60370;SDS011;48550;40.588;49.684;2022-11-12T16:40:23;49.67;;;21.95;;
60370;SDS011;48550;40.588;49.684;2022-11-12T16:42:51;52.13;;;24.25;;
60370;SDS011;48550;40.588;49.684;2022-11-12T16:45:18;41.72;;;22.50;;
60370;SDS011;48550;40.588;49.684;2022-11-12T16:47:46;38.85;;;19.83;;
60370;SDS011;48550;40.588;49.684;2022-11-12T16:50:15;48.17;;;20.85;;
60370;SDS011;48550;40.588;49.684;2022-11-12T16:52:42;42.45;;;18.95;;
60370;SDS011;48550;40.588;49.684;2022-11-12T16:55:08;40.25;;;16.13;;
60370;SDS011;48550;40.588;49.684;2022-11-12T16:57:34;43.50;;;18.30;;
60370;SDS011;48550;40.588;49.684;2022-11-12T17:00:02;50.05;;;20.45;;
60370;SDS011;48550;40.588;49.684;2022-11-12T17:02:29;40.53;;;20.98;;
60370;SDS011;48550;40.588;49.684;2022-11-12T17:04:55;40.08;;;20.05;;
60370;SDS011;48550;40.588;49.684;2022-11-12T17:07:21;41.08;;;17.88;;
60370;SDS011;48550;40.588;49.684;2022-11-12T17:09:47;33.75;;;17.73;;
60370;SDS011;48550;40.588;49.684;2022-11-12T17:12:12;40.00;;;19.45;;
60370;SDS011;48550;40.588;49.684;2022-11-12T17:14:38;35.33;;;18.58;;
60370;SDS011;48550;40.588;49.684;2022-11-12T17:17:04;39.83;;;18.13;;
60370;SDS011;48550;40.588;49.684;2022-11-12T17:19:29;57.60;;;24.92;;
60370;SDS011;48550;40.588;49.684;2022-11-12T17:21:55;50.90;;;22.75;;
60370;SDS011;48550;40.588;49.684;2022-11-12T17:24:24;41.63;;;20.52;;